Bonum — CRA5490 — position and weather

sailwx.info

Track history (hours):
 
Tides and Currents Weather Stations Pressure Air Temp Water Temp Dewpoint Dewpoint Depression Visibility Wind Speed Wind Dir Waves Ship Positions

Bonum

Last reported at 2016-Feb-22 06:23 UTC. Time now 2016-May-30 03:07 UTC.
Position N 36°09' W 005°22'.
Warning: this ship's position is months out of date.

Length 38 m; draft 3.2 m.

Type: Ship. MMSI: 255910770.

Date/timePositionNaut miles runAvg speedWind from/ knotsBaromVisibWave heightAir tempDewpointWater temp
2016-Feb-22 06:23N 36°09' W 005°22'0 0.0
2016-Feb-22 05:26N 36°09' W 005°22'0 0.0
2016-Feb-22 04:19N 36°09' W 005°22'  
2016-Feb-19 16:33N 36°10' W 005°22'2 2.3
2016-Feb-19 15:33N 36°10' W 005°19'217 9.7
2016-Feb-18 17:11N 37°17' W 001°02'810.6
2016-Feb-18 16:27N 37°22' W 000°54'910.0
2016-Feb-18 15:33N 37°28' W 000°46'10 9.9
2016-Feb-18 14:33N 37°33' W 000°36'10 9.6
2016-Feb-18 13:33N 37°42' W 000°31'11 9.6
2016-Feb-18 12:26N 37°52' W 000°26'910.2
2016-Feb-18 11:33N 37°60' W 000°19'  
Track history (hours):
 
Tides and Currents Weather Stations Pressure Air Temp Water Temp Dewpoint Dewpoint Depression Visibility Wind Speed Wind Dir Waves Ship Positions

Bonum

Last reported at 2016-Feb-22 06:23 UTC. Time now 2016-May-30 03:07 UTC.
Position N 36°09' W 005°22'.
Warning: this ship's position is months out of date.

Length 38 m; draft 3.2 m.

Type: Ship. MMSI: 255910770.

Date/timePositionNaut miles runAvg speedWind from/ knotsBaromVisibWave heightAir tempDewpointWater temp
2016-Feb-22 06:23N 36°09' W 005°22'0 0.0
2016-Feb-22 05:26N 36°09' W 005°22'0 0.0
2016-Feb-22 04:19N 36°09' W 005°22'  
2016-Feb-19 16:33N 36°10' W 005°22'2 2.3
2016-Feb-19 15:33N 36°10' W 005°19'217 9.7
2016-Feb-18 17:11N 37°17' W 001°02'810.6
2016-Feb-18 16:27N 37°22' W 000°54'910.0
2016-Feb-18 15:33N 37°28' W 000°46'10 9.9
2016-Feb-18 14:33N 37°33' W 000°36'10 9.6
2016-Feb-18 13:33N 37°42' W 000°31'11 9.6
2016-Feb-18 12:26N 37°52' W 000°26'910.2
2016-Feb-18 11:33N 37°60' W 000°19'  

Dump ship's entire track history